Aérodrome :
LOGIN :

S'inscrire | Disclaimer

   EN    FR    IT 

 










Légende :    VFR   VFR Marginal   IFR   IFR Intensif   IFR Très Intensif
Visi : 
Plafond : 
>= 8 km
>= 3000ft
5 à 8 km
1000 à 3000 ft
1500m à 5 km
500 à 1000 ft
800 à 1500m
200 à 500 ft
< 800m
< 200 ft
Symboles :   Orages  Brouillard  Fortes neiges  Fortes précipitations  Vent > 20 kt
SIGMETs :   Divers  Orages  Givrage  Turbulence  Onde Orograph.  Cendres Volcan.






- Altitude de l'aérodrome : -11 ft
- Code IATA : AMS


EHAM - Amsterdam Schiphol

DERNIER METAR :
  • 290325Z 09007KT 2500 BR FEW002 BKN003 04/04 Q1025 BECMG 4000 BKN005

METARs EXPIRÉS :
  • 290255Z 06006KT 2300 BR SCT002 BKN003 04/04 Q1025 BECMG 3000
  • 290225Z 08006KT 1600 BR FEW001 BKN002 04/04 Q1025 BECMG 3000 BKN003
  • 290155Z 09006KT 060V120 1800 BR BKN002 04/04 Q1024 BECMG 3000 BKN003
  • 290125Z 09007KT 050V130 1600 BR FEW001 BKN002 04/04 Q1024 NOSIG
  • 290055Z 08008KT 1800 BR FEW001 BKN002 04/04 Q1024 NOSIG

TAF AMD TAF EHAM
Valide du 29 à 02h jusqu'au 30 à 06h UTC


290225Z 2902/3006 07007KT 2000 BR OVC002
BECMG 2902/2904 4000 OVC004
BECMG 2904/2906 6000 NSW BKN006
BECMG 2906/2908 8000 BKN012
BECMG 2908/2911 CAVOK
PROB30 2920/3003 VRB03KT 5000 BR
BECMG 3003/3006 18008KT



MET'MAP, la Météo Aéronautique d'un coup d'oeil ! - Copyright ORBIFLY Décembre 2007 - Disclaimer

ORBIFLY MET'MAP TEAM :

Programmation & Développement : Alexandra Zaïnal
Sur une idée originale de : Baudouin d'Aumeries
Assistance à la programmation : Marc-Olivier Méhu
Soutien technique & logistique : Manuel Goepfert

Contact : metmap@orbifly.com




SOURCES & CREDITS :

   NOAA